createdAt,value
2023-03-23T00:00:17.215Z,21
2023-03-23T00:05:17.146Z,24
2023-03-23T00:10:16.924Z,26
2023-03-23T00:15:17.109Z,22
2023-03-23T00:20:17.165Z,22
2023-03-23T00:25:17.051Z,20
2023-03-23T00:30:17.232Z,20
2023-03-23T00:35:17.098Z,21
2023-03-23T00:40:17.146Z,20
2023-03-23T00:45:17.274Z,21
2023-03-23T00:50:18.155Z,21
2023-03-23T00:55:17.249Z,20
2023-03-23T01:00:17.269Z,19
2023-03-23T01:05:17.115Z,19
2023-03-23T01:10:17.151Z,20
2023-03-23T01:15:17.686Z,20
2023-03-23T01:20:17.427Z,19
2023-03-23T01:25:17.179Z,18
2023-03-23T01:30:17.389Z,16
2023-03-23T01:35:17.241Z,15
2023-03-23T01:40:17.242Z,15
2023-03-23T01:45:17.736Z,16
2023-03-23T01:50:17.384Z,17
2023-03-23T01:55:17.425Z,18
2023-03-23T02:00:17.900Z,18
2023-03-23T02:05:17.331Z,17
2023-03-23T02:10:17.291Z,18
2023-03-23T02:15:17.515Z,17
2023-03-23T02:20:17.286Z,17
2023-03-23T02:25:17.639Z,17
2023-03-23T02:30:17.565Z,16
2023-03-23T02:35:17.296Z,17
2023-03-23T02:40:17.388Z,16
2023-03-23T02:45:17.675Z,16
2023-03-23T02:50:17.360Z,14
2023-03-23T02:55:17.401Z,15
2023-03-23T03:00:17.807Z,17
2023-03-23T03:05:17.470Z,17
2023-03-23T03:10:17.596Z,18
2023-03-23T03:15:17.697Z,18
2023-03-23T03:20:17.426Z,18
2023-03-23T03:25:18.733Z,17
2023-03-23T03:30:17.495Z,18
2023-03-23T03:35:17.822Z,19
2023-03-23T03:40:17.448Z,19
2023-03-23T03:45:17.590Z,19
2023-03-23T03:50:17.593Z,18
2023-03-23T03:55:17.690Z,17
2023-03-23T04:00:16.666Z,17
2023-03-23T04:05:16.626Z,16
2023-03-23T04:10:16.702Z,15
2023-03-23T04:15:17.279Z,16
2023-03-23T04:20:16.681Z,16
2023-03-23T04:25:16.891Z,14
2023-03-23T04:30:16.609Z,16
2023-03-23T04:35:16.805Z,16
2023-03-23T04:40:16.576Z,14
2023-03-23T04:45:17.050Z,14
2023-03-23T04:50:16.708Z,15
2023-03-23T04:55:16.724Z,14
2023-03-23T05:00:17.199Z,14
2023-03-23T05:05:16.704Z,14
2023-03-23T05:10:16.718Z,14
2023-03-23T05:15:16.904Z,16
2023-03-23T05:20:16.979Z,16
2023-03-23T05:25:16.847Z,15
2023-03-23T05:30:17.041Z,15
2023-03-23T05:35:16.848Z,15
2023-03-23T05:41:06.874Z,16
2023-03-23T05:45:17.014Z,16
2023-03-23T05:50:16.840Z,15
2023-03-23T05:55:17.037Z,16
2023-03-23T06:00:16.833Z,17
2023-03-23T06:05:17.177Z,17
2023-03-23T06:10:16.923Z,16
2023-03-23T06:15:17.142Z,17
2023-03-23T06:20:16.862Z,17
2023-03-23T06:25:17.048Z,16
2023-03-23T06:30:17.159Z,16
2023-03-23T06:35:17.042Z,16
2023-03-23T06:40:16.993Z,15
2023-03-23T06:45:17.588Z,16
2023-03-23T06:50:17.082Z,15
2023-03-23T06:55:17.166Z,15
2023-03-23T07:00:17.070Z,15
2023-03-23T07:05:17.279Z,15
2023-03-23T07:10:17.014Z,14
2023-03-23T07:15:17.508Z,15
2023-03-23T07:20:16.983Z,16
2023-03-23T07:25:17.103Z,16
2023-03-23T07:30:17.154Z,16
2023-03-23T07:35:17.182Z,15
2023-03-23T07:40:19.257Z,15
2023-03-23T07:45:17.401Z,16
2023-03-23T07:50:17.143Z,14
2023-03-23T07:55:17.396Z,16
2023-03-23T08:00:17.689Z,13
2023-03-23T08:05:17.610Z,13
2023-03-23T08:10:17.218Z,12
2023-03-23T08:15:17.864Z,12
2023-03-23T08:20:17.169Z,12
2023-03-23T08:25:17.330Z,12
2023-03-23T08:30:17.390Z,12
2023-03-23T08:35:17.365Z,11
2023-03-23T08:40:18.262Z,10
2023-03-23T08:45:17.460Z,10
2023-03-23T08:50:17.328Z,10
2023-03-23T08:55:17.480Z,8
2023-03-23T09:00:17.449Z,10
2023-03-23T09:05:17.434Z,10
2023-03-23T09:10:17.311Z,10
2023-03-23T09:15:21.102Z,9
2023-03-23T09:20:17.294Z,6
2023-03-23T09:25:18.384Z,6
2023-03-23T09:30:17.483Z,8
2023-03-23T09:35:17.426Z,8
2023-03-23T09:40:17.440Z,10
2023-03-23T09:45:17.815Z,9
2023-03-23T09:50:17.435Z,5
2023-03-23T09:55:17.542Z,8
2023-03-23T10:00:17.728Z,6
2023-03-23T10:05:17.548Z,8
2023-03-23T10:10:17.433Z,8
2023-03-23T10:15:17.676Z,8
2023-03-23T10:20:17.577Z,11
2023-03-23T10:25:17.765Z,11
2023-03-23T10:30:17.761Z,8
2023-03-23T10:35:18.053Z,15
2023-03-23T10:40:17.595Z,17
2023-03-23T10:45:17.744Z,17
2023-03-23T10:50:17.570Z,18
2023-03-23T10:55:17.711Z,17
2023-03-23T11:00:17.838Z,16
2023-03-23T11:05:20.137Z,17
2023-03-23T11:10:17.973Z,17
2023-03-23T11:15:17.884Z,18
2023-03-23T11:20:17.704Z,18
2023-03-23T11:25:17.942Z,18
2023-03-23T11:30:17.750Z,18
2023-03-23T11:35:17.853Z,17
2023-03-23T11:40:17.747Z,18
2023-03-23T11:45:18.438Z,17
2023-03-23T11:50:17.751Z,18
2023-03-23T11:55:17.946Z,20
2023-03-23T12:00:17.817Z,20
2023-03-23T12:05:17.949Z,20
2023-03-23T12:10:25.399Z,20
2023-03-23T12:15:17.925Z,19
2023-03-23T12:20:18.081Z,20
2023-03-23T12:25:17.950Z,20
2023-03-23T12:30:17.928Z,19
2023-03-23T12:35:18.058Z,19
2023-03-23T12:40:18.015Z,18
2023-03-23T12:45:18.010Z,19
2023-03-23T12:50:17.871Z,19
2023-03-23T12:55:18.498Z,19
2023-03-23T13:00:18.424Z,19
2023-03-23T13:05:18.025Z,18
2023-03-23T13:10:17.946Z,15
2023-03-23T13:15:19.370Z,15
2023-03-23T13:20:17.980Z,14
2023-03-23T13:25:18.712Z,14
2023-03-23T13:30:18.069Z,15
2023-03-23T13:35:18.154Z,15
2023-03-23T13:40:18.108Z,16
2023-03-23T13:45:18.460Z,15
2023-03-23T13:50:18.147Z,14
2023-03-23T13:55:18.271Z,13
2023-03-23T14:00:18.302Z,12
2023-03-23T14:05:19.540Z,12
2023-03-23T14:10:18.158Z,12
2023-03-23T14:15:18.847Z,13
2023-03-23T14:20:18.241Z,14
2023-03-23T14:25:18.197Z,15
2023-03-23T14:30:18.395Z,16
2023-03-23T14:35:18.849Z,17
2023-03-23T14:40:18.247Z,16
2023-03-23T14:45:16.356Z,16
2023-03-23T14:50:16.241Z,16
2023-03-23T14:55:16.424Z,15
2023-03-23T15:00:16.262Z,14
2023-03-23T15:05:16.266Z,16
2023-03-23T15:10:16.428Z,16
2023-03-23T15:15:17.857Z,15
2023-03-23T15:20:16.248Z,15
2023-03-23T15:25:16.332Z,16
2023-03-23T15:30:16.652Z,16
2023-03-23T15:35:16.432Z,15
2023-03-23T15:40:16.423Z,14
2023-03-23T15:45:16.654Z,14
2023-03-23T15:50:16.399Z,14
2023-03-23T15:55:16.776Z,12
2023-03-23T16:00:16.566Z,11
2023-03-23T16:05:16.568Z,11
2023-03-23T16:10:16.461Z,12
2023-03-23T16:15:16.733Z,13
2023-03-23T16:20:16.485Z,14
2023-03-23T16:25:16.788Z,17
2023-03-23T16:30:16.546Z,19
2023-03-23T16:35:16.557Z,21
2023-03-23T16:40:16.537Z,22
2023-03-23T16:45:16.986Z,21
2023-03-23T16:50:16.696Z,21
2023-03-23T16:55:16.661Z,22
2023-03-23T17:00:16.691Z,21
2023-03-23T17:05:16.708Z,21
2023-03-23T17:10:16.692Z,22
2023-03-23T17:15:16.973Z,22
2023-03-23T17:20:16.819Z,23
2023-03-23T17:25:17.002Z,23
2023-03-23T17:30:16.718Z,25
2023-03-23T17:35:16.953Z,24
2023-03-23T17:40:16.592Z,23
2023-03-23T17:45:16.880Z,25
2023-03-23T17:50:16.847Z,26
2023-03-23T17:55:16.943Z,25
2023-03-23T18:00:17.149Z,25
2023-03-23T18:05:16.793Z,25
2023-03-23T18:10:16.913Z,24
2023-03-23T18:15:17.028Z,23
2023-03-23T18:20:16.688Z,22
2023-03-23T18:25:17.172Z,22
2023-03-23T18:30:16.730Z,23
2023-03-23T18:35:17.373Z,24
2023-03-23T18:40:16.828Z,21
2023-03-23T18:45:17.203Z,22
2023-03-23T18:50:16.797Z,23
2023-03-23T18:55:17.013Z,25
2023-03-23T19:00:16.930Z,23
2023-03-23T19:05:17.002Z,28
2023-03-23T19:10:17.335Z,25
2023-03-23T19:15:17.214Z,21
2023-03-23T19:20:23.677Z,21
2023-03-23T19:25:17.048Z,23
2023-03-23T19:30:17.211Z,22
2023-03-23T19:35:16.992Z,20
2023-03-23T19:40:35.526Z,20
2023-03-23T19:45:17.470Z,22
2023-03-23T19:50:16.995Z,23
2023-03-23T19:55:17.315Z,22
2023-03-23T20:00:17.149Z,21
2023-03-23T20:05:17.254Z,22
2023-03-23T20:10:17.086Z,24
2023-03-23T20:15:17.295Z,23
2023-03-23T20:20:17.229Z,22
2023-03-23T20:25:17.511Z,22
2023-03-23T20:30:17.396Z,19
2023-03-23T20:35:17.300Z,21
2023-03-23T20:40:17.177Z,21
2023-03-23T20:45:17.354Z,22
2023-03-23T20:50:17.220Z,25
2023-03-23T20:55:17.308Z,28
2023-03-23T21:00:17.286Z,28
2023-03-23T21:05:17.608Z,27
2023-03-23T21:10:17.162Z,24
2023-03-23T21:15:17.416Z,22
2023-03-23T21:20:17.244Z,21
2023-03-23T21:25:17.617Z,19
2023-03-23T21:30:17.734Z,19
2023-03-23T21:35:17.199Z,22
2023-03-23T21:40:17.264Z,22
2023-03-23T21:45:17.938Z,22
2023-03-23T21:50:17.246Z,21
2023-03-23T21:55:17.367Z,22
2023-03-23T22:00:17.541Z,21
2023-03-23T22:05:17.502Z,20
2023-03-23T22:10:17.342Z,20
2023-03-23T22:15:17.960Z,21
2023-03-23T22:20:17.390Z,20
2023-03-23T22:25:17.555Z,18
2023-03-23T22:30:17.402Z,20
2023-03-23T22:35:17.845Z,18
2023-03-23T22:40:17.632Z,18
2023-03-23T22:45:17.678Z,16
2023-03-23T22:50:17.460Z,14
2023-03-23T22:55:17.549Z,13
2023-03-23T23:00:17.824Z,13
2023-03-23T23:05:17.662Z,13
2023-03-23T23:10:17.429Z,12
2023-03-23T23:15:17.882Z,12
2023-03-23T23:20:17.906Z,12
2023-03-23T23:25:17.675Z,13
2023-03-23T23:30:17.896Z,13
2023-03-23T23:35:17.656Z,13
2023-03-23T23:40:17.864Z,15
2023-03-23T23:45:17.701Z,14
2023-03-23T23:50:18.160Z,14
2023-03-23T23:55:17.828Z,13
